Time,TemperatureF,DewpointF,PressureIn,WindDirection,WindDirectionDegrees,WindSpeedMPH,WindSpeedGustMPH,Humidity,HourlyPrecipIn,Conditions,Clouds,dailyrainin,SoftwareType,DateUTC
2014-07-22 00:11:00,67.4,62.0,29.94,North,360,0.0,-999.0,83,-99.99,,,0.00,weatherlink.com 1.10,2014-07-22 07:11:00,
2014-07-22 00:26:00,67.3,62.0,29.94,North,360,0.0,-999.0,84,-99.99,,,0.00,weatherlink.com 1.10,2014-07-22 07:26:00,
2014-07-22 00:41:00,67.0,62.0,29.94,North,360,1.0,-999.0,84,-99.99,,,0.00,weatherlink.com 1.10,2014-07-22 07:41:00,
2014-07-22 00:56:00,66.6,62.0,29.93,North,360,0.0,-999.0,84,-99.99,,,0.00,weatherlink.com 1.10,2014-07-22 07:56:00,
2014-07-22 01:11:00,66.4,62.0,29.94,North,360,0.0,-999.0,84,-99.99,,,0.00,weatherlink.com 1.10,2014-07-22 08:11:00,
2014-07-22 01:26:00,66.2,62.0,29.94,North,360,0.0,-999.0,85,-99.99,,,0.00,weatherlink.com 1.10,2014-07-22 08:26:00,
2014-07-22 01:41:00,65.9,61.0,29.94,North,360,0.0,-999.0,85,-99.99,,,0.00,weatherlink.com 1.10,2014-07-22 08:41:00,
2014-07-22 01:56:00,65.6,61.0,29.94,North,360,0.0,-999.0,85,-99.99,,,0.00,weatherlink.com 1.10,2014-07-22 08:56:00,
2014-07-22 02:11:00,65.8,62.0,29.94,North,360,0.0,-999.0,86,-99.99,,,0.00,weatherlink.com 1.10,2014-07-22 09:11:00,
2014-07-22 02:26:00,66.0,62.0,29.94,North,360,0.0,-999.0,86,-99.99,,,0.00,weatherlink.com 1.10,2014-07-22 09:26:00,
2014-07-22 02:41:00,65.9,62.0,29.94,North,360,0.0,-999.0,87,-99.99,,,0.00,weatherlink.com 1.10,2014-07-22 09:41:00,
2014-07-22 02:56:00,65.8,62.0,29.95,North,360,0.0,-999.0,87,-99.99,,,0.00,weatherlink.com 1.10,2014-07-22 09:56:00,
2014-07-22 03:11:00,65.6,62.0,29.95,North,360,0.0,-999.0,88,-99.99,,,0.00,weatherlink.com 1.10,2014-07-22 10:11:00,
2014-07-22 03:26:00,65.2,62.0,29.95,North,360,0.0,-999.0,88,-99.99,,,0.00,weatherlink.com 1.10,2014-07-22 10:26:00,
2014-07-22 03:41:00,64.7,61.0,29.95,North,360,0.0,-999.0,88,-99.99,,,0.00,weatherlink.com 1.10,2014-07-22 10:41:00,
2014-07-22 03:56:00,64.1,61.0,29.95,North,360,0.0,-999.0,88,-99.99,,,0.00,weatherlink.com 1.10,2014-07-22 10:56:00,
2014-07-22 04:11:00,63.9,61.0,29.95,North,360,0.0,-999.0,89,-99.99,,,0.00,weatherlink.com 1.10,2014-07-22 11:11:00,
2014-07-22 04:26:00,63.4,60.0,29.94,North,360,0.0,-999.0,88,-99.99,,,0.00,weatherlink.com 1.10,2014-07-22 11:26:00,
2014-07-22 04:41:00,63.5,60.0,29.95,North,360,0.0,-999.0,89,-99.99,,,0.00,weatherlink.com 1.10,2014-07-22 11:41:00,
2014-07-22 04:56:00,63.0,60.0,29.94,North,360,0.0,-999.0,89,-99.99,,,0.00,weatherlink.com 1.10,2014-07-22 11:56:00,
2014-07-22 05:11:00,63.0,60.0,29.94,North,360,0.0,-999.0,89,-99.99,,,0.00,weatherlink.com 1.10,2014-07-22 12:11:00,
2014-07-22 05:26:00,63.1,60.0,29.94,North,360,0.0,-999.0,90,-99.99,,,0.00,weatherlink.com 1.10,2014-07-22 12:26:00,
2014-07-22 05:41:00,63.1,60.0,29.94,North,360,0.0,-999.0,90,-99.99,,,0.00,weatherlink.com 1.10,2014-07-22 12:41:00,
2014-07-22 05:56:00,63.0,60.0,29.95,North,360,0.0,-999.0,90,-99.99,,,0.00,weatherlink.com 1.10,2014-07-22 12:56:00,
2014-07-22 06:11:00,62.6,60.0,29.95,North,360,0.0,-999.0,90,-99.99,,,0.00,weatherlink.com 1.10,2014-07-22 13:11:00,
2014-07-22 06:26:00,62.5,60.0,29.95,North,360,0.0,-999.0,90,-99.99,,,0.00,weatherlink.com 1.10,2014-07-22 13:26:00,
2014-07-22 06:41:00,62.7,60.0,29.95,North,360,0.0,-999.0,90,-99.99,,,0.00,weatherlink.com 1.10,2014-07-22 13:41:00,
2014-07-22 06:56:00,63.0,60.0,29.95,North,360,0.0,-999.0,91,-99.99,,,0.00,weatherlink.com 1.10,2014-07-22 13:56:00,
2014-07-22 07:11:00,64.9,62.0,29.96,North,360,0.0,-999.0,91,-99.99,,,0.00,weatherlink.com 1.10,2014-07-22 14:11:00,
2014-07-22 07:30:00,67.0,64.0,29.96,North,360,0.0,-999.0,91,-99.99,,,0.00,weatherlink.com 1.10,2014-07-22 14:30:00,
2014-07-22 07:41:00,67.5,65.0,29.97,North,360,1.0,-999.0,90,-99.99,,,0.00,weatherlink.com 1.10,2014-07-22 14:41:00,
2014-07-22 07:56:00,69.1,66.0,29.97,SE,126,2.0,-999.0,90,-99.99,,,0.00,weatherlink.com 1.10,2014-07-22 14:56:00,
2014-07-22 08:11:00,70.8,67.0,29.97,SSE,147,0.0,-999.0,86,-99.99,,,0.00,weatherlink.com 1.10,2014-07-22 15:11:00,
2014-07-22 08:26:00,71.6,66.0,29.97,SSE,168,1.0,-999.0,83,-99.99,,,0.00,weatherlink.com 1.10,2014-07-22 15:26:00,
2014-07-22 08:41:00,72.6,66.0,29.97,SW,236,0.0,-999.0,79,-99.99,,,0.00,weatherlink.com 1.10,2014-07-22 15:41:00,
2014-07-22 08:57:00,74.2,66.0,29.98,SE,146,2.0,-999.0,76,-99.99,,,0.00,weatherlink.com 1.10,2014-07-22 15:57:00,
2014-07-22 09:12:00,74.8,66.0,29.97,SW,232,2.0,-999.0,74,-99.99,,,0.00,weatherlink.com 1.10,2014-07-22 16:12:00,
2014-07-22 09:27:00,75.2,66.0,29.97,SSW,199,1.0,-999.0,74,-99.99,,,0.00,weatherlink.com 1.10,2014-07-22 16:27:00,
2014-07-22 09:42:00,75.7,66.0,29.98,SW,229,0.0,-999.0,73,-99.99,,,0.00,weatherlink.com 1.10,2014-07-22 16:42:00,
2014-07-22 09:57:00,75.7,66.0,29.98,SW,234,8.0,-999.0,73,-99.99,,,0.00,weatherlink.com 1.10,2014-07-22 16:57:00,
2014-07-22 10:12:00,76.2,67.0,29.98,SW,218,1.0,-999.0,72,-99.99,,,0.00,weatherlink.com 1.10,2014-07-22 17:12:00,
2014-07-22 10:27:00,77.3,67.0,29.98,SSW,207,2.0,-999.0,70,-99.99,,,0.00,weatherlink.com 1.10,2014-07-22 17:27:00,
2014-07-22 10:42:00,77.5,67.0,29.98,SE,144,3.0,-999.0,69,-99.99,,,0.00,weatherlink.com 1.10,2014-07-22 17:42:00,
2014-07-22 10:57:00,77.6,67.0,29.98,SSW,211,0.0,-999.0,69,-99.99,,,0.00,weatherlink.com 1.10,2014-07-22 17:57:00,
2014-07-22 11:12:00,78.0,66.0,29.98,South,186,2.0,-999.0,67,-99.99,,,0.00,weatherlink.com 1.10,2014-07-22 18:12:00,
2014-07-22 11:27:00,78.8,66.0,29.97,SW,226,3.0,-999.0,65,-99.99,,,0.00,weatherlink.com 1.10,2014-07-22 18:27:00,
2014-07-22 11:42:00,79.6,65.0,29.97,SSW,213,2.0,-999.0,62,-99.99,,,0.00,weatherlink.com 1.10,2014-07-22 18:42:00,
2014-07-22 11:57:00,80.7,66.0,29.97,SSE,167,5.0,-999.0,62,-99.99,,,0.00,weatherlink.com 1.10,2014-07-22 18:57:00,
2014-07-22 12:12:00,81.5,66.0,29.97,SW,234,5.0,-999.0,59,-99.99,,,0.00,weatherlink.com 1.10,2014-07-22 19:12:00,
2014-07-22 12:27:00,81.9,66.0,29.97,SSE,167,3.0,-999.0,58,-99.99,,,0.00,weatherlink.com 1.10,2014-07-22 19:27:00,
2014-07-22 12:42:00,83.2,66.0,29.96,WSW,238,2.0,-999.0,56,-99.99,,,0.00,weatherlink.com 1.10,2014-07-22 19:42:00,
2014-07-22 12:57:00,83.9,66.0,29.96,West,277,0.0,-999.0,55,-99.99,,,0.00,weatherlink.com 1.10,2014-07-22 19:57:00,
2014-07-22 13:12:00,85.4,67.0,29.95,West,273,6.0,-999.0,55,-99.99,,,0.00,weatherlink.com 1.10,2014-07-22 20:12:00,
2014-07-22 13:27:00,85.2,67.0,29.95,NW,320,2.0,-999.0,54,-99.99,,,0.00,weatherlink.com 1.10,2014-07-22 20:27:00,
2014-07-22 13:42:00,84.6,67.0,29.95,NNW,336,2.0,-999.0,55,-99.99,,,0.00,weatherlink.com 1.10,2014-07-22 20:42:00,
2014-07-22 13:57:00,85.1,67.0,29.95,North,10,2.0,-999.0,54,-99.99,,,0.00,weatherlink.com 1.10,2014-07-22 20:57:00,
2014-07-22 14:12:00,86.3,67.0,29.95,NNW,333,2.0,-999.0,53,-99.99,,,0.00,weatherlink.com 1.10,2014-07-22 21:12:00,
2014-07-22 14:27:00,85.8,66.0,29.95,West,281,3.0,-999.0,52,-99.99,,,0.00,weatherlink.com 1.10,2014-07-22 21:27:00,